Time;durP1;ratioP1;P1;durP2;ratioP2;P2;SDS_P1;SDS_P2;PMS_P1;PMS_P2;Temp;Humidity;BMP_temperature;BMP_pressure;BME280_temperature;BME280_humidity;BME280_pressure;Samples;Min_cycle;Max_cycle;Signal;HPM_P1;HPM_P2
2021/07/19 00:01:29;;;;;;;3.15;2.30;;;16.70;99.90;;;;;;4947429;28;20193;-76
2021/07/19 00:03:55;;;;;;;3.90;2.42;;;16.60;99.90;;;;;;4947315;28;20232;-76
2021/07/19 00:06:21;;;;;;;3.40;2.45;;;16.60;99.90;;;;;;4945897;28;20193;-76
2021/07/19 00:08:46;;;;;;;3.72;2.30;;;16.50;99.90;;;;;;4947108;28;20205;-76
2021/07/19 00:11:13;;;;;;;4.22;2.70;;;16.60;99.90;;;;;;4947047;28;20275;-76
2021/07/19 00:13:39;;;;;;;5.13;2.78;;;16.60;99.90;;;;;;4947209;29;20196;-76
2021/07/19 00:16:05;;;;;;;2.63;2.10;;;16.50;99.90;;;;;;4947067;28;20189;-76
2021/07/19 00:18:31;;;;;;;4.22;2.35;;;16.50;99.90;;;;;;4946718;28;20210;-76
2021/07/19 00:20:58;;;;;;;4.13;2.80;;;16.40;99.90;;;;;;4947370;28;20209;-76
2021/07/19 00:23:24;;;;;;;7.38;2.50;;;16.40;99.90;;;;;;4946948;28;20276;-76
2021/07/19 00:25:51;;;;;;;4.53;2.42;;;16.30;99.90;;;;;;4947189;28;20285;-76
2021/07/19 00:28:16;;;;;;;3.75;2.42;;;16.40;99.90;;;;;;4945543;29;20616;-76
2021/07/19 00:30:43;;;;;;;3.65;2.78;;;16.30;99.90;;;;;;4948880;28;20182;-76
2021/07/19 00:33:10;;;;;;;3.38;2.15;;;16.30;99.90;;;;;;4946538;28;20260;-75
2021/07/19 00:35:36;;;;;;;3.13;2.20;;;16.20;99.90;;;;;;4950258;28;21106;-76
2021/07/19 00:38:02;;;;;;;5.90;2.53;;;16.10;99.90;;;;;;4946468;28;20205;-75
2021/07/19 00:40:31;;;;;;;3.42;2.53;;;16.10;99.90;;;;;;4945419;28;20192;-77
2021/07/19 00:42:57;;;;;;;3.13;2.42;;;16.00;99.90;;;;;;4946571;28;20248;-76
2021/07/19 00:45:26;;;;;;;4.47;2.45;;;16.00;99.90;;;;;;4947236;29;20201;-77
2021/07/19 00:47:53;;;;;;;3.85;2.40;;;16.00;99.90;;;;;;4950046;28;20284;-76
2021/07/19 00:50:20;;;;;;;4.35;2.42;;;16.00;99.90;;;;;;4948494;28;20190;-76
2021/07/19 00:52:46;;;;;;;6.05;3.15;;;16.00;99.90;;;;;;4949879;28;20177;-76
2021/07/19 00:55:13;;;;;;;3.65;2.60;;;15.90;99.90;;;;;;4948963;28;20189;-76
2021/07/19 00:57:44;;;;;;;2.60;2.13;;;15.80;99.90;;;;;;4949523;28;20210;-76
2021/07/19 01:00:11;;;;;;;5.32;2.30;;;15.70;99.90;;;;;;4949287;28;20189;-76
2021/07/19 01:02:40;;;;;;;5.70;2.97;;;15.70;99.90;;;;;;4949074;29;20197;-75
2021/07/19 01:05:07;;;;;;;2.60;2.25;;;15.70;99.90;;;;;;4949317;28;20214;-76
2021/07/19 01:07:35;;;;;;;4.07;1.92;;;15.70;99.90;;;;;;4949589;28;20206;-77
2021/07/19 01:10:03;;;;;;;5.13;3.00;;;15.70;99.90;;;;;;4949636;28;20197;-76
2021/07/19 01:12:29;;;;;;;4.13;2.63;;;15.70;99.90;;;;;;4949625;28;20585;-76
2021/07/19 01:14:55;;;;;;;3.92;2.60;;;15.70;99.90;;;;;;4948876;28;20193;-76
2021/07/19 01:17:20;;;;;;;3.85;2.75;;;15.70;99.90;;;;;;4948944;28;20209;-77
2021/07/19 01:19:49;;;;;;;3.25;2.10;;;15.70;99.90;;;;;;4948807;28;20269;-76
2021/07/19 01:22:29;;;;;;;5.55;2.80;;;15.70;99.90;;;;;;4947515;28;20201;-76
2021/07/19 01:25:43;;;;;;;3.33;2.40;;;15.60;99.90;;;;;;4947878;28;20224;-75
2021/07/19 01:28:34;;;;;;;4.72;2.60;;;15.50;99.90;;;;;;4947804;29;20247;-76
2021/07/19 01:31:04;;;;;;;5.07;2.95;;;15.50;99.90;;;;;;4948694;29;20196;-75
2021/07/19 01:33:33;;;;;;;6.15;3.00;;;15.40;99.90;;;;;;4948718;28;20205;-76
2021/07/19 01:36:00;;;;;;;5.20;2.63;;;15.40;99.90;;;;;;4948761;28;20529;-75
2021/07/19 01:38:28;;;;;;;3.10;2.60;;;15.40;99.90;;;;;;4947118;28;20202;-75
2021/07/19 01:40:54;;;;;;;4.57;2.33;;;15.40;99.90;;;;;;4948711;28;20711;-76
2021/07/19 01:43:22;;;;;;;5.82;3.10;;;15.40;99.90;;;;;;4948489;28;20185;-75
2021/07/19 01:45:49;;;;;;;4.40;2.33;;;15.40;99.90;;;;;;4948363;28;20288;-76
2021/07/19 01:48:15;;;;;;;4.35;2.65;;;15.40;99.90;;;;;;4946459;29;20209;-76
2021/07/19 01:50:42;;;;;;;3.58;2.50;;;15.50;99.90;;;;;;4948195;28;20335;-75
2021/07/19 01:53:09;;;;;;;4.35;2.53;;;15.70;99.90;;;;;;4948488;28;20193;-76
2021/07/19 01:55:35;;;;;;;4.18;2.78;;;15.90;99.90;;;;;;4947809;28;20189;-75
2021/07/19 01:58:01;;;;;;;4.60;2.90;;;15.90;99.90;;;;;;4946767;28;20205;-75
2021/07/19 02:00:28;;;;;;;3.13;2.55;;;16.00;99.90;;;;;;4948474;28;20193;-76
2021/07/19 02:02:54;;;;;;;3.58;2.33;;;16.10;99.90;;;;;;4948085;28;20696;-75
2021/07/19 02:05:21;;;;;;;3.03;1.98;;;16.10;99.90;;;;;;4947963;28;20213;-76
2021/07/19 02:07:52;;;;;;;5.43;2.40;;;16.10;99.90;;;;;;4947604;28;20204;-76
2021/07/19 02:10:18;;;;;;;4.88;2.70;;;16.10;99.90;;;;;;4947036;29;20185;-76
2021/07/19 02:12:44;;;;;;;4.85;2.58;;;16.10;99.90;;;;;;4950861;28;20221;-77
2021/07/19 02:15:14;;;;;;;3.63;2.70;;;16.10;99.90;;;;;;4952075;28;20185;-76
2021/07/19 02:17:54;;;;;;;5.10;2.75;;;16.10;99.90;;;;;;4951256;29;20652;-76
2021/07/19 02:20:22;;;;;;;4.55;2.70;;;16.10;99.90;;;;;;4952171;28;20639;-76
2021/07/19 02:22:48;;;;;;;3.28;2.30;;;16.10;99.90;;;;;;4951564;28;20182;-77
2021/07/19 02:25:15;;;;;;;6.65;3.05;;;16.20;99.90;;;;;;4951734;29;20213;-76
2021/07/19 02:27:43;;;;;;;4.47;2.50;;;16.20;99.90;;;;;;4950973;29;20201;-77
2021/07/19 02:30:15;;;;;;;5.85;2.65;;;16.20;99.90;;;;;;4949776;29;20840;-76
2021/07/19 02:32:43;;;;;;;7.40;3.20;;;16.20;99.90;;;;;;4947926;29;20239;-76
2021/07/19 02:35:11;;;;;;;3.22;2.20;;;16.20;99.90;;;;;;4948288;28;20197;-76
2021/07/19 02:37:38;;;;;;;3.35;2.25;;;16.20;99.90;;;;;;4947287;29;20598;-75
2021/07/19 02:40:06;;;;;;;6.13;2.88;;;16.30;99.90;;;;;;4947541;28;20190;-76
2021/07/19 02:42:34;;;;;;;4.75;2.67;;;16.20;99.90;;;;;;4947978;28;20181;-77
2021/07/19 02:45:00;;;;;;;7.15;3.05;;;16.30;99.90;;;;;;4947962;28;20309;-76
2021/07/19 02:47:27;;;;;;;4.55;2.63;;;16.30;99.90;;;;;;4947158;29;20263;-75
2021/07/19 02:49:53;;;;;;;3.25;2.15;;;16.40;99.90;;;;;;4945909;29;20225;-75
2021/07/19 02:52:22;;;;;;;3.15;2.20;;;16.40;99.90;;;;;;4947698;28;20201;-77
2021/07/19 02:54:49;;;;;;;4.30;2.08;;;16.30;99.90;;;;;;4947513;28;20190;-76
2021/07/19 02:57:15;;;;;;;4.40;2.33;;;16.40;99.90;;;;;;4945666;28;20252;-75
2021/07/19 02:59:41;;;;;;;3.95;1.95;;;16.50;99.90;;;;;;4946847;28;20186;-75
2021/07/19 03:02:10;;;;;;;2.13;1.75;;;16.50;99.90;;;;;;4946991;28;20202;-76
2021/07/19 03:04:38;;;;;;;3.05;2.22;;;16.40;99.90;;;;;;4946798;29;20245;-77
2021/07/19 03:07:06;;;;;;;4.68;2.00;;;16.30;99.90;;;;;;4946463;28;20599;-77
2021/07/19 03:09:33;;;;;;;3.92;2.30;;;16.30;99.90;;;;;;4945861;28;20181;-76
2021/07/19 03:12:01;;;;;;;6.40;2.60;;;16.40;99.90;;;;;;4946399;28;20673;-75
2021/07/19 03:14:31;;;;;;;6.15;2.42;;;16.30;99.90;;;;;;4945242;28;20255;-77
2021/07/19 03:16:57;;;;;;;4.97;2.22;;;16.20;99.90;;;;;;4946334;28;20202;-76
2021/07/19 03:19:24;;;;;;;4.25;2.13;;;16.20;99.90;;;;;;4945534;29;20236;-75
2021/07/19 03:21:54;;;;;;;5.93;2.78;;;16.30;99.90;;;;;;4945252;28;20212;-77
2021/07/19 03:24:22;;;;;;;3.40;2.00;;;16.30;99.90;;;;;;4946650;29;20202;-75
2021/07/19 03:26:49;;;;;;;4.28;2.30;;;16.40;99.90;;;;;;4946390;28;20213;-77
2021/07/19 03:29:16;;;;;;;5.35;2.25;;;16.30;99.90;;;;;;4945281;28;20243;-76
2021/07/19 03:31:42;;;;;;;5.75;2.13;;;16.30;99.90;;;;;;4947637;28;20181;-75
2021/07/19 03:34:11;;;;;;;3.83;2.28;;;16.40;99.90;;;;;;4949014;28;20181;-76
2021/07/19 03:36:37;;;;;;;3.70;2.10;;;16.40;99.90;;;;;;4945816;28;21146;-76
2021/07/19 03:39:05;;;;;;;4.45;2.40;;;16.40;99.90;;;;;;4946977;28;20201;-75
2021/07/19 03:41:31;;;;;;;4.00;2.03;;;16.40;99.90;;;;;;4946419;29;20236;-76
2021/07/19 03:43:58;;;;;;;3.17;2.28;;;16.40;99.90;;;;;;4946869;28;20213;-77
2021/07/19 03:46:24;;;;;;;5.82;2.13;;;16.40;99.90;;;;;;4946603;28;20185;-76
2021/07/19 03:48:50;;;;;;;3.15;1.70;;;16.40;99.90;;;;;;4946500;29;20212;-76
2021/07/19 03:51:17;;;;;;;3.97;2.42;;;16.40;99.90;;;;;;4946575;28;20233;-76
2021/07/19 03:53:43;;;;;;;5.75;2.58;;;16.40;99.90;;;;;;4945184;29;20182;-76
2021/07/19 03:56:09;;;;;;;2.65;1.60;;;16.40;99.90;;;;;;4946368;28;21122;-77
2021/07/19 03:58:36;;;;;;;4.47;1.50;;;16.40;99.90;;;;;;4946719;28;20205;-77
2021/07/19 04:01:02;;;;;;;5.95;1.67;;;16.40;99.90;;;;;;4946298;29;20182;-75
2021/07/19 04:03:33;;;;;;;2.75;1.80;;;16.40;99.90;;;;;;4946336;29;20578;-76
2021/07/19 04:06:01;;;;;;;4.60;1.70;;;16.50;99.90;;;;;;4944941;28;20181;-77
2021/07/19 04:08:30;;;;;;;5.15;1.70;;;16.60;99.90;;;;;;4946443;28;20193;-76
2021/07/19 04:10:56;;;;;;;2.92;1.60;;;16.60;99.90;;;;;;4946594;28;20226;-76
2021/07/19 04:13:22;;;;;;;2.92;2.20;;;16.70;99.90;;;;;;4946416;28;20185;-76
2021/07/19 04:15:50;;;;;;;2.00;1.63;;;16.60;99.90;;;;;;4946162;29;20185;-76
2021/07/19 04:18:21;;;;;;;4.35;1.63;;;16.60;99.90;;;;;;4946914;28;20209;-76
2021/07/19 04:20:48;;;;;;;1.90;1.48;;;16.60;99.90;;;;;;4949013;28;20241;-76
2021/07/19 04:23:15;;;;;;;2.72;1.77;;;16.60;99.90;;;;;;4950212;28;20190;-76
2021/07/19 04:25:41;;;;;;;3.33;1.40;;;16.60;99.90;;;;;;4948780;28;20480;-77
2021/07/19 04:28:07;;;;;;;2.75;1.65;;;16.60;99.90;;;;;;4950059;28;20698;-76
2021/07/19 04:30:35;;;;;;;4.63;2.05;;;16.70;99.90;;;;;;4949742;28;20189;-76
2021/07/19 04:33:01;;;;;;;3.42;1.52;;;16.70;99.90;;;;;;4949848;29;20659;-76
2021/07/19 04:35:27;;;;;;;5.57;2.05;;;16.80;99.90;;;;;;4949513;28;20193;-76
2021/07/19 04:37:53;;;;;;;2.90;1.63;;;16.70;99.90;;;;;;4948018;28;20212;-76
2021/07/19 04:40:24;;;;;;;2.88;1.45;;;16.70;99.90;;;;;;4948861;28;20682;-76
2021/07/19 04:42:50;;;;;;;2.08;1.10;;;16.80;99.90;;;;;;4949937;28;20578;-76
2021/07/19 04:45:19;;;;;;;2.33;1.75;;;16.80;99.90;;;;;;4949359;28;20300;-76
2021/07/19 04:47:45;;;;;;;2.60;1.73;;;16.80;99.90;;;;;;4947919;28;20284;-75
2021/07/19 04:50:15;;;;;;;2.53;1.33;;;16.90;99.90;;;;;;4948155;28;20186;-76
2021/07/19 04:52:41;;;;;;;1.98;1.45;;;17.00;99.90;;;;;;4948990;29;20182;-74
2021/07/19 04:55:10;;;;;;;3.35;1.38;;;16.90;99.90;;;;;;4949480;28;20635;-75
2021/07/19 04:57:38;;;;;;;3.72;1.50;;;17.00;99.90;;;;;;4948568;28;20657;-76
2021/07/19 05:00:05;;;;;;;3.05;1.30;;;17.20;99.90;;;;;;4948849;28;20193;-76
2021/07/19 05:02:33;;;;;;;3.25;1.50;;;17.40;99.90;;;;;;4949221;28;20372;-75
2021/07/19 05:05:01;;;;;;;4.85;1.83;;;17.70;99.90;;;;;;4949783;28;20229;-76
2021/07/19 05:07:32;;;;;;;2.08;1.10;;;18.00;99.90;;;;;;4949187;28;20215;-75
2021/07/19 05:10:00;;;;;;;2.88;1.55;;;18.10;99.90;;;;;;4948847;28;20268;-75
2021/07/19 05:12:27;;;;;;;1.95;1.20;;;18.20;99.90;;;;;;4947587;28;20182;-75
2021/07/19 05:14:52;;;;;;;2.53;1.30;;;18.20;99.90;;;;;;4948967;28;20190;-76
2021/07/19 05:17:20;;;;;;;2.17;1.48;;;18.20;99.90;;;;;;4946959;29;20213;-76
2021/07/19 05:19:46;;;;;;;3.05;1.80;;;18.20;99.90;;;;;;4946725;28;20181;-75
2021/07/19 05:22:13;;;;;;;1.77;1.35;;;18.40;99.90;;;;;;4947186;28;20300;-75
2021/07/19 05:24:40;;;;;;;1.42;1.08;;;18.30;99.90;;;;;;4948647;28;20487;-76
2021/07/19 05:27:07;;;;;;;3.10;1.30;;;18.10;99.90;;;;;;4948651;28;20201;-75
2021/07/19 05:29:37;;;;;;;3.70;1.63;;;18.00;99.90;;;;;;4949179;28;20640;-76
2021/07/19 05:32:04;;;;;;;2.78;1.42;;;17.90;99.90;;;;;;4963971;28;20178;-76
2021/07/19 05:34:30;;;;;;;3.28;1.17;;;17.90;99.90;;;;;;4949304;28;20199;-75
2021/07/19 05:36:55;;;;;;;1.20;1.08;;;17.90;99.90;;;;;;4948808;28;20609;-76
2021/07/19 05:39:21;;;;;;;3.10;1.25;;;17.90;99.90;;;;;;4948709;29;20182;-76
2021/07/19 05:41:47;;;;;;;3.90;1.40;;;18.00;99.90;;;;;;4949577;28;20209;-77
2021/07/19 05:44:13;;;;;;;2.72;1.10;;;17.90;99.90;;;;;;4949079;28;20687;-76
2021/07/19 05:46:39;;;;;;;2.50;1.50;;;17.90;99.90;;;;;;4947447;28;20545;-76
2021/07/19 05:49:05;;;;;;;1.50;1.00;;;18.00;99.90;;;;;;4948627;28;20186;-76
2021/07/19 05:51:31;;;;;;;1.23;1.00;;;17.90;99.90;;;;;;4947118;28;20710;-76
2021/07/19 05:53:56;;;;;;;1.30;1.10;;;18.00;99.90;;;;;;4947377;28;20186;-76
2021/07/19 05:56:22;;;;;;;1.80;1.35;;;18.10;99.90;;;;;;4948745;28;20679;-77
2021/07/19 05:58:47;;;;;;;1.80;1.20;;;18.20;99.90;;;;;;4948557;28;20209;-76
2021/07/19 06:01:13;;;;;;;1.63;1.20;;;18.20;99.90;;;;;;4948831;28;20197;-76
2021/07/19 06:03:39;;;;;;;3.95;1.40;;;18.20;99.90;;;;;;4948071;28;20265;-75
2021/07/19 06:06:06;;;;;;;2.10;1.65;;;18.20;99.90;;;;;;4946878;28;20193;-76
2021/07/19 06:08:32;;;;;;;1.80;1.40;;;18.20;99.90;;;;;;4946617;28;20198;-76
2021/07/19 06:10:58;;;;;;;1.92;1.20;;;18.30;99.90;;;;;;4948818;28;20235;-76
2021/07/19 06:13:23;;;;;;;2.42;1.58;;;18.40;99.90;;;;;;4948479;29;20204;-77
2021/07/19 06:15:49;;;;;;;2.13;1.45;;;18.40;99.90;;;;;;4947434;28;20316;-76
2021/07/19 06:18:15;;;;;;;2.95;1.60;;;18.30;99.90;;;;;;4948923;28;20216;-76
2021/07/19 06:20:41;;;;;;;2.88;1.05;;;18.10;99.90;;;;;;4948374;28;20212;-75
2021/07/19 06:23:06;;;;;;;1.95;1.30;;;18.00;99.90;;;;;;4948718;28;20217;-77
2021/07/19 06:25:34;;;;;;;1.45;1.35;;;18.10;99.90;;;;;;4948058;29;20237;-75
2021/07/19 06:28:01;;;;;;;2.53;1.02;;;18.10;99.90;;;;;;4948296;28;20233;-75
2021/07/19 06:30:27;;;;;;;2.30;1.25;;;18.20;99.90;;;;;;4948497;28;20193;-77
2021/07/19 06:32:54;;;;;;;1.80;1.20;;;18.20;99.90;;;;;;4947443;28;20189;-77
2021/07/19 06:35:20;;;;;;;1.63;1.20;;;18.20;99.90;;;;;;4948354;28;20198;-75
2021/07/19 06:37:46;;;;;;;2.47;1.17;;;18.20;99.90;;;;;;4944505;28;20202;-75
2021/07/19 06:40:12;;;;;;;2.42;1.33;;;18.30;99.90;;;;;;4944777;28;20196;-76
2021/07/19 06:42:38;;;;;;;2.50;1.40;;;18.50;99.90;;;;;;4948049;28;20276;-77
2021/07/19 06:45:09;;;;;;;2.50;1.15;;;18.40;99.90;;;;;;4945394;28;20300;-76
2021/07/19 06:47:35;;;;;;;1.90;1.15;;;18.40;99.90;;;;;;4947081;29;20224;-77
2021/07/19 06:50:01;;;;;;;1.90;1.15;;;18.50;99.90;;;;;;4948082;28;20652;-77
2021/07/19 06:52:27;;;;;;;2.38;1.15;;;18.60;99.90;;;;;;4947779;29;20656;-78
2021/07/19 06:54:53;;;;;;;2.92;1.40;;;18.70;99.90;;;;;;4946738;28;20185;-78
2021/07/19 06:57:19;;;;;;;1.77;1.10;;;18.60;99.90;;;;;;4962347;28;20755;-79
2021/07/19 06:59:45;;;;;;;2.25;1.27;;;18.70;99.90;;;;;;4946281;28;20185;-77
2021/07/19 07:02:10;;;;;;;1.75;1.40;;;18.90;99.90;;;;;;4959270;28;20197;-78
2021/07/19 07:04:36;;;;;;;8.05;1.58;;;18.70;99.90;;;;;;4944333;29;20213;-78
2021/07/19 07:07:03;;;;;;;2.95;1.23;;;18.70;99.90;;;;;;4941343;28;20578;-78
2021/07/19 07:09:28;;;;;;;1.00;0.90;;;18.80;99.90;;;;;;4943684;29;20213;-79
2021/07/19 07:11:54;;;;;;;1.48;1.10;;;18.80;99.90;;;;;;4942764;28;20600;-78
2021/07/19 07:14:19;;;;;;;1.45;1.27;;;18.70;99.90;;;;;;4944112;28;20198;-78
2021/07/19 07:16:45;;;;;;;0.90;0.90;;;18.60;99.90;;;;;;4944042;28;20223;-77
2021/07/19 07:19:10;;;;;;;1.48;1.10;;;18.60;99.90;;;;;;4943912;28;20194;-78
2021/07/19 07:21:36;;;;;;;10.90;1.63;;;18.90;99.90;;;;;;4943437;28;20296;-77
2021/07/19 07:24:02;;;;;;;2.13;1.50;;;19.20;99.90;;;;;;4944121;28;20211;-78
2021/07/19 07:26:27;;;;;;;3.30;1.25;;;19.40;99.90;;;;;;4944185;28;20182;-78
2021/07/19 07:28:54;;;;;;;4.28;1.40;;;19.60;99.90;;;;;;4943598;28;20217;-78
2021/07/19 07:31:25;;;;;;;2.67;1.13;;;19.60;99.90;;;;;;4944522;29;20189;-78
2021/07/19 07:33:51;;;;;;;1.75;1.15;;;19.70;99.90;;;;;;4958379;28;20225;-78
2021/07/19 07:36:16;;;;;;;1.90;1.27;;;19.70;99.90;;;;;;4943758;28;20192;-78
2021/07/19 07:38:42;;;;;;;1.92;0.93;;;19.80;99.90;;;;;;4944545;28;20209;-79
2021/07/19 07:41:08;;;;;;;1.70;1.10;;;20.00;99.90;;;;;;4945935;29;20878;-78
2021/07/19 07:43:34;;;;;;;4.40;1.27;;;19.60;99.90;;;;;;4946500;29;20188;-78
2021/07/19 07:46:00;;;;;;;2.30;1.30;;;19.50;99.90;;;;;;4946543;29;20287;-78
2021/07/19 07:48:26;;;;;;;1.83;1.05;;;19.80;99.90;;;;;;4945992;28;20564;-78
2021/07/19 07:50:51;;;;;;;2.55;1.15;;;19.90;99.90;;;;;;4946861;28;20181;-78
2021/07/19 07:53:17;;;;;;;2.22;1.10;;;19.80;99.90;;;;;;4946515;28;20186;-78
2021/07/19 07:55:42;;;;;;;1.30;0.93;;;19.80;99.90;;;;;;4946065;28;20196;-79
2021/07/19 07:58:08;;;;;;;4.05;1.10;;;20.00;99.90;;;;;;4944572;28;20228;-77
2021/07/19 08:00:34;;;;;;;2.45;1.10;;;20.00;99.90;;;;;;4944487;28;20469;-76
2021/07/19 08:03:00;;;;;;;1.10;0.90;;;20.10;99.90;;;;;;4943460;28;20194;-75
2021/07/19 08:05:26;;;;;;;2.10;1.17;;;20.10;99.90;;;;;;4944188;28;20225;-76
2021/07/19 08:07:51;;;;;;;2.88;1.40;;;20.20;99.90;;;;;;4944600;28;20237;-76
2021/07/19 08:10:17;;;;;;;2.65;1.17;;;20.30;99.90;;;;;;4944990;29;20182;-76
2021/07/19 08:12:44;;;;;;;1.80;1.23;;;20.50;99.90;;;;;;4944730;28;20640;-76
2021/07/19 08:15:11;;;;;;;3.00;1.63;;;20.60;99.90;;;;;;4944427;28;20276;-77
2021/07/19 08:17:36;;;;;;;3.15;1.30;;;20.50;99.90;;;;;;4943813;28;20209;-76
2021/07/19 08:20:04;;;;;;;1.90;1.00;;;20.50;99.90;;;;;;4944486;28;20667;-77
2021/07/19 08:22:31;;;;;;;1.73;1.33;;;20.60;99.90;;;;;;4942968;28;20876;-79
2021/07/19 08:24:57;;;;;;;2.42;1.05;;;20.70;99.90;;;;;;4944281;28;20404;-77
2021/07/19 08:27:23;;;;;;;1.77;0.90;;;20.80;99.90;;;;;;4947484;28;20213;-78
2021/07/19 08:29:49;;;;;;;1.38;1.00;;;20.80;99.90;;;;;;4943542;28;20186;-79
2021/07/19 08:32:16;;;;;;;1.35;0.85;;;21.00;99.90;;;;;;4943624;28;20655;-78
2021/07/19 08:34:43;;;;;;;1.75;0.93;;;21.00;99.90;;;;;;4943816;28;20181;-81
2021/07/19 08:37:09;;;;;;;1.10;0.93;;;21.10;99.90;;;;;;4942484;28;20589;-79
2021/07/19 08:39:34;;;;;;;1.55;1.10;;;21.00;99.90;;;;;;4944349;28;20186;-80
2021/07/19 08:42:01;;;;;;;2.13;1.20;;;20.60;99.90;;;;;;4943933;28;20194;-77
2021/07/19 08:44:27;;;;;;;2.00;0.88;;;20.70;99.90;;;;;;4942562;28;20221;-81
2021/07/19 08:46:53;;;;;;;2.80;1.20;;;20.90;99.90;;;;;;4943732;28;20241;-78
2021/07/19 08:49:19;;;;;;;2.55;1.30;;;21.00;99.90;;;;;;4942484;28;20220;-80
2021/07/19 08:51:45;;;;;;;1.83;1.17;;;21.30;99.90;;;;;;4944412;28;20241;-79
2021/07/19 08:54:11;;;;;;;2.42;1.10;;;21.60;99.90;;;;;;4942238;28;20193;-81
2021/07/19 08:56:39;;;;;;;1.70;1.05;;;21.90;99.90;;;;;;4944254;28;20293;-81
2021/07/19 08:59:07;;;;;;;1.48;1.00;;;22.00;99.90;;;;;;4942464;28;20706;-77
2021/07/19 09:01:34;;;;;;;2.03;0.90;;;22.00;99.90;;;;;;4943387;28;20674;-76
2021/07/19 09:04:00;;;;;;;1.73;0.80;;;22.10;99.90;;;;;;4942863;28;20193;-79
2021/07/19 09:06:26;;;;;;;2.30;1.13;;;22.10;99.90;;;;;;4946427;28;20184;-81
2021/07/19 09:08:53;;;;;;;1.10;0.85;;;22.10;99.90;;;;;;4949105;28;20699;-82
2021/07/19 09:11:20;;;;;;;2.30;1.48;;;22.10;99.90;;;;;;4947769;28;20189;-79
2021/07/19 09:14:06;;;;;;;2.50;1.20;;;22.00;99.90;;;;;;4947258;28;20181;-79
2021/07/19 09:16:40;;;;;;;1.77;1.00;;;22.00;99.90;;;;;;4946708;29;20181;-81
2021/07/19 09:19:08;;;;;;;2.97;1.23;;;21.80;99.90;;;;;;4946158;29;20177;-78
2021/07/19 09:21:35;;;;;;;1.85;1.17;;;22.00;99.90;;;;;;4943118;28;20784;-80
2021/07/19 09:24:06;;;;;;;2.55;1.23;;;22.00;99.90;;;;;;4945754;28;20188;-80
2021/07/19 09:26:32;;;;;;;1.42;0.80;;;22.30;99.90;;;;;;4944687;29;20468;-79
2021/07/19 09:28:58;;;;;;;1.75;1.23;;;22.30;99.90;;;;;;4961364;28;20197;-82
2021/07/19 09:31:36;;;;;;;1.42;0.90;;;22.50;99.90;;;;;;4946613;28;20240;-82
2021/07/19 09:34:05;;;;;;;1.42;1.10;;;22.70;99.90;;;;;;4946673;28;20185;-78
2021/07/19 09:36:31;;;;;;;4.85;1.15;;;22.60;99.90;;;;;;4946220;28;20201;-81
2021/07/19 09:39:08;;;;;;;2.45;1.00;;;22.50;99.90;;;;;;4946356;28;20667;-81
2021/07/19 09:41:35;;;;;;;2.75;1.42;;;22.30;99.90;;;;;;4946503;28;20185;-79
2021/07/19 09:44:06;;;;;;;2.28;1.00;;;22.40;99.90;;;;;;4946088;28;20180;-82
2021/07/19 09:46:33;;;;;;;1.50;1.20;;;22.70;99.90;;;;;;4946334;28;20643;-78
2021/07/19 09:48:59;;;;;;;2.35;1.08;;;22.80;99.90;;;;;;4946572;28;20269;-80
2021/07/19 09:51:33;;;;;;;2.08;1.10;;;22.80;99.90;;;;;;4946672;28;20181;-79
2021/07/19 09:54:09;;;;;;;1.90;1.30;;;23.10;99.90;;;;;;4946501;28;20182;-78
2021/07/19 09:56:34;;;;;;;1.50;1.08;;;23.30;99.90;;;;;;4946314;28;20787;-78
2021/07/19 09:59:04;;;;;;;2.88;1.20;;;23.20;99.90;;;;;;4945847;28;20284;-80
2021/07/19 10:01:34;;;;;;;2.53;1.38;;;23.50;99.90;;;;;;4946679;28;20181;-78
2021/07/19 10:04:10;;;;;;;2.05;0.95;;;23.50;99.90;;;;;;4946018;28;20245;-78
2021/07/19 10:06:38;;;;;;;2.47;1.50;;;23.40;99.90;;;;;;4946149;29;20185;-80
2021/07/19 10:09:07;;;;;;;1.52;1.13;;;23.30;99.90;;;;;;4944371;28;20182;-79
2021/07/19 10:11:35;;;;;;;2.08;1.05;;;23.30;99.90;;;;;;4944727;28;20209;-78
2021/07/19 10:14:01;;;;;;;2.55;1.42;;;23.40;99.90;;;;;;4945785;28;20181;-79
2021/07/19 10:16:31;;;;;;;2.42;1.40;;;23.40;99.90;;;;;;4943499;28;20185;-81
2021/07/19 10:18:59;;;;;;;1.27;1.05;;;23.10;99.90;;;;;;4945404;28;20209;-79
2021/07/19 10:21:30;;;;;;;2.00;1.05;;;23.00;99.90;;;;;;4944240;28;20307;-78
2021/07/19 10:24:04;;;;;;;1.73;1.25;;;23.10;99.90;;;;;;4944282;28;20272;-78
2021/07/19 10:26:31;;;;;;;2.90;1.42;;;23.20;99.90;;;;;;4945335;29;20484;-81
2021/07/19 10:28:57;;;;;;;3.67;1.30;;;22.90;99.90;;;;;;4945526;28;20221;-81
2021/07/19 10:31:23;;;;;;;2.25;1.40;;;22.80;99.90;;;;;;4944522;28;20268;-78
2021/07/19 10:33:50;;;;;;;4.00;1.52;;;22.20;99.90;;;;;;4945941;28;20281;-79
2021/07/19 10:36:47;;;;;;;2.25;1.05;;;22.30;99.90;;;;;;4946073;28;20232;-77
2021/07/19 10:39:21;;;;;;;1.77;1.30;;;22.60;99.90;;;;;;4944658;29;20651;-78
2021/07/19 10:41:59;;;;;;;2.47;1.40;;;22.70;99.90;;;;;;4947887;29;20185;-78
2021/07/19 10:44:36;;;;;;;1.52;1.35;;;23.00;99.90;;;;;;4962332;28;20209;-77
2021/07/19 10:47:14;;;;;;;2.70;1.55;;;22.90;99.90;;;;;;4944576;29;20216;-78
2021/07/19 10:49:43;;;;;;;3.22;1.40;;;23.10;99.90;;;;;;4945113;28;20261;-78
2021/07/19 10:52:12;;;;;;;2.63;1.35;;;23.50;99.90;;;;;;4944385;29;20216;-77
2021/07/19 10:54:49;;;;;;;3.97;1.45;;;23.80;99.90;;;;;;4944076;28;20185;-78
2021/07/19 10:57:19;;;;;;;2.67;1.23;;;24.00;99.90;;;;;;4945838;28;20790;-78
2021/07/19 11:00:02;;;;;;;2.70;1.48;;;23.90;99.90;;;;;;4946545;28;20198;-78
2021/07/19 11:02:28;;;;;;;3.33;1.48;;;23.80;99.90;;;;;;4945271;29;20687;-79
2021/07/19 11:04:54;;;;;;;2.03;1.27;;;23.30;99.90;;;;;;4945510;28;20212;-78
2021/07/19 11:07:24;;;;;;;2.28;1.38;;;23.10;99.90;;;;;;4945305;28;20698;-78
2021/07/19 11:09:50;;;;;;;4.60;1.70;;;23.40;99.90;;;;;;4944843;28;20178;-78
2021/07/19 11:12:18;;;;;;;2.88;1.48;;;22.90;99.90;;;;;;4944166;28;20271;-77
2021/07/19 11:14:52;;;;;;;2.80;1.52;;;22.50;99.90;;;;;;4943131;28;20236;-79
2021/07/19 11:17:20;;;;;;;3.35;1.70;;;22.50;99.90;;;;;;4944690;28;20263;-77
2021/07/19 11:19:48;;;;;;;1.67;1.25;;;22.50;99.90;;;;;;4946349;28;20647;-77
2021/07/19 11:22:26;;;;;;;1.92;1.40;;;22.40;99.90;;;;;;4946490;28;20584;-79
2021/07/19 11:25:06;;;;;;;1.92;1.20;;;22.60;99.90;;;;;;4944859;28;20197;-78
2021/07/19 11:27:44;;;;;;;1.23;1.10;;;22.20;99.90;;;;;;4944740;28;20229;-78
2021/07/19 11:30:15;;;;;;;3.58;1.60;;;22.30;99.90;;;;;;4944978;28;20261;-78
2021/07/19 11:32:40;;;;;;;3.03;1.80;;;22.40;99.90;;;;;;4943916;28;20444;-78
2021/07/19 11:35:11;;;;;;;2.35;1.30;;;23.00;99.90;;;;;;4943665;28;20225;-79
2021/07/19 11:37:42;;;;;;;2.20;1.70;;;23.50;99.90;;;;;;4944603;28;20206;-79
2021/07/19 11:40:09;;;;;;;2.80;1.75;;;23.40;99.90;;;;;;4944756;28;20655;-78
2021/07/19 11:42:43;;;;;;;2.00;1.40;;;23.50;99.90;;;;;;4944090;28;20493;-78
2021/07/19 11:45:10;;;;;;;1.88;1.20;;;23.50;99.90;;;;;;4944989;28;20217;-78
2021/07/19 11:47:51;;;;;;;1.38;1.27;;;23.60;99.90;;;;;;4944268;28;20193;-78
2021/07/19 11:50:22;;;;;;;3.78;1.80;;;23.90;99.90;;;;;;4944648;28;20188;-78
2021/07/19 11:52:49;;;;;;;2.80;1.30;;;23.90;99.90;;;;;;4945331;28;20177;-79
2021/07/19 11:55:17;;;;;;;2.70;1.40;;;23.90;99.90;;;;;;4944667;28;20431;-79
2021/07/19 11:57:50;;;;;;;1.90;1.67;;;23.70;99.90;;;;;;4943017;28;20208;-79
2021/07/19 12:00:26;;;;;;;2.90;1.80;;;23.50;99.90;;;;;;4944418;29;20478;-79
2021/07/19 12:03:06;;;;;;;1.75;1.40;;;23.50;99.90;;;;;;4944517;28;20580;-80
2021/07/19 12:05:34;;;;;;;2.95;1.83;;;23.50;99.90;;;;;;4942572;29;20223;-78
2021/07/19 12:08:08;;;;;;;2.22;1.40;;;23.50;99.90;;;;;;4943955;28;20209;-77
2021/07/19 12:10:39;;;;;;;3.47;1.50;;;23.80;99.90;;;;;;4943897;28;20181;-79
2021/07/19 12:13:12;;;;;;;1.48;1.23;;;23.70;99.90;;;;;;4943909;28;20911;-79
2021/07/19 12:15:48;;;;;;;2.35;1.20;;;23.60;99.90;;;;;;4944242;28;20248;-77
2021/07/19 12:18:13;;;;;;;2.35;1.70;;;23.80;99.90;;;;;;4942315;28;20209;-79
2021/07/19 12:20:39;;;;;;;1.65;1.50;;;24.20;99.90;;;;;;4943343;28;20208;-78
2021/07/19 12:23:05;;;;;;;3.22;1.85;;;24.30;99.90;;;;;;4944275;29;20667;-79
2021/07/19 12:25:30;;;;;;;2.25;1.58;;;24.20;99.90;;;;;;4942885;28;20208;-79
2021/07/19 12:28:05;;;;;;;2.33;1.65;;;23.90;99.90;;;;;;4943977;28;20221;-79
2021/07/19 12:30:31;;;;;;;1.77;1.60;;;23.90;99.90;;;;;;4944131;29;20263;-78
2021/07/19 12:32:56;;;;;;;1.75;1.50;;;24.30;99.90;;;;;;4942361;28;20276;-79
2021/07/19 12:35:24;;;;;;;2.25;1.67;;;24.70;99.20;;;;;;4943940;28;20185;-78
2021/07/19 12:37:58;;;;;;;1.52;1.42;;;24.30;99.70;;;;;;4942492;28;20617;-78
2021/07/19 12:40:25;;;;;;;1.80;1.30;;;24.30;99.30;;;;;;4947777;28;20767;-76
2021/07/19 12:42:52;;;;;;;1.58;1.40;;;24.20;99.90;;;;;;4949334;28;20201;-76
2021/07/19 12:45:18;;;;;;;2.25;1.25;;;24.00;99.90;;;;;;4949219;28;20256;-77
2021/07/19 12:47:50;;;;;;;2.05;1.50;;;23.60;99.90;;;;;;4948988;28;20201;-76
2021/07/19 12:50:15;;;;;;;2.53;1.38;;;23.40;99.90;;;;;;4949197;28;20190;-77
2021/07/19 12:52:41;;;;;;;2.88;1.45;;;23.40;99.90;;;;;;4947921;28;20178;-78